sensor_id;sensor_type;location;lat;lon;timestamp;pressure;altitude;pressure_sealevel;temperature;humidity
60061;BME280;45933;51.336;12.612;2024-01-25T00:01:33;100346.78;;;9.82;53.54
60061;BME280;45933;51.336;12.612;2024-01-25T00:03:58;100341.59;;;9.83;53.29
60061;BME280;45933;51.336;12.612;2024-01-25T00:06:23;100327.69;;;9.78;53.81
60061;BME280;45933;51.336;12.612;2024-01-25T00:08:50;100342.47;;;9.82;53.57
60061;BME280;45933;51.336;12.612;2024-01-25T00:11:15;100345.91;;;9.80;53.53
60061;BME280;45933;51.336;12.612;2024-01-25T00:13:41;100342.47;;;9.82;53.68
60061;BME280;45933;51.336;12.612;2024-01-25T00:16:06;100349.38;;;9.73;54.02
60061;BME280;45933;51.336;12.612;2024-01-25T00:18:31;100345.03;;;9.75;53.83
60061;BME280;45933;51.336;12.612;2024-01-25T00:20:57;100351.97;;;9.71;53.80
60061;BME280;45933;51.336;12.612;2024-01-25T00:23:22;100352.84;;;9.73;53.95
60061;BME280;45933;51.336;12.612;2024-01-25T00:25:47;100342.41;;;9.75;53.62
60061;BME280;45933;51.336;12.612;2024-01-25T00:28:13;100350.25;;;9.76;53.45
60061;BME280;45933;51.336;12.612;2024-01-25T00:30:39;100351.97;;;9.74;53.61
60061;BME280;45933;51.336;12.612;2024-01-25T00:33:04;100343.28;;;9.69;53.87
60061;BME280;45933;51.336;12.612;2024-01-25T00:35:30;100331.16;;;9.66;54.14
60061;BME280;45933;51.336;12.612;2024-01-25T00:37:55;100330.28;;;9.67;53.68
60061;BME280;45933;51.336;12.612;2024-01-25T00:40:21;100330.28;;;9.71;53.88
60061;BME280;45933;51.336;12.612;2024-01-25T00:42:47;100333.72;;;9.69;53.64
60061;BME280;45933;51.336;12.612;2024-01-25T00:45:19;100336.34;;;9.73;53.62
60061;BME280;45933;51.336;12.612;2024-01-25T00:47:45;100343.28;;;9.67;54.06
60061;BME280;45933;51.336;12.612;2024-01-25T00:50:10;100334.63;;;9.65;53.80
60061;BME280;45933;51.336;12.612;2024-01-25T00:52:36;100332.84;;;9.64;53.90
60061;BME280;45933;51.336;12.612;2024-01-25T00:55:02;100351.09;;;9.67;53.65
60061;BME280;45933;51.336;12.612;2024-01-25T00:57:27;100335.47;;;9.66;53.92
60061;BME280;45933;51.336;12.612;2024-01-25T00:59:53;100320.72;;;9.57;53.91
60061;BME280;45933;51.336;12.612;2024-01-25T01:02:21;100333.72;;;9.56;53.96
60061;BME280;45933;51.336;12.612;2024-01-25T01:04:47;100332.88;;;9.61;54.07
60061;BME280;45933;51.336;12.612;2024-01-25T01:07:12;100338.06;;;9.63;54.08
60061;BME280;45933;51.336;12.612;2024-01-25T01:09:37;100330.28;;;9.61;53.83
60061;BME280;45933;51.336;12.612;2024-01-25T01:12:03;100344.13;;;9.63;53.98
60061;BME280;45933;51.336;12.612;2024-01-25T01:14:28;100333.75;;;9.65;53.54
60061;BME280;45933;51.336;12.612;2024-01-25T01:16:53;100346.75;;;9.66;53.60
60061;BME280;45933;51.336;12.612;2024-01-25T01:19:20;100347.63;;;9.61;53.61
60061;BME280;45933;51.336;12.612;2024-01-25T01:21:45;100340.69;;;9.66;53.71
60061;BME280;45933;51.336;12.612;2024-01-25T01:24:11;100329.38;;;9.64;53.85
60061;BME280;45933;51.336;12.612;2024-01-25T01:26:37;100342.38;;;9.58;54.04
60061;BME280;45933;51.336;12.612;2024-01-25T01:29:02;100337.19;;;9.55;53.89
60061;BME280;45933;51.336;12.612;2024-01-25T01:31:27;100343.28;;;9.61;53.60
60061;BME280;45933;51.336;12.612;2024-01-25T01:33:52;100355.41;;;9.59;53.79
60061;BME280;45933;51.336;12.612;2024-01-25T01:36:18;100344.13;;;9.59;53.52
60061;BME280;45933;51.336;12.612;2024-01-25T01:38:43;100345.00;;;9.58;53.57
60061;BME280;45933;51.336;12.612;2024-01-25T01:41:11;100357.16;;;9.60;53.71
60061;BME280;45933;51.336;12.612;2024-01-25T01:43:38;100371.91;;;9.55;53.60
60061;BME280;45933;51.336;12.612;2024-01-25T01:46:12;100363.22;;;9.64;53.53
60061;BME280;45933;51.336;12.612;2024-01-25T01:48:39;100356.31;;;9.60;53.74
60061;BME280;45933;51.336;12.612;2024-01-25T01:51:05;100362.34;;;9.59;53.58
60061;BME280;45933;51.336;12.612;2024-01-25T01:53:32;100345.00;;;9.56;53.72
60061;BME280;45933;51.336;12.612;2024-01-25T01:55:57;100358.00;;;9.56;53.22
60061;BME280;45933;51.336;12.612;2024-01-25T01:58:24;100358.00;;;9.56;53.41
60061;BME280;45933;51.336;12.612;2024-01-25T02:00:50;100362.31;;;9.54;53.44
60061;BME280;45933;51.336;12.612;2024-01-25T02:03:15;100348.47;;;9.57;53.25
60061;BME280;45933;51.336;12.612;2024-01-25T02:05:41;100358.84;;;9.54;53.42
60061;BME280;45933;51.336;12.612;2024-01-25T02:08:07;100351.06;;;9.52;53.35
60061;BME280;45933;51.336;12.612;2024-01-25T02:10:32;100344.13;;;9.56;53.34
60061;BME280;45933;51.336;12.612;2024-01-25T02:12:57;100334.59;;;9.58;53.21
60061;BME280;45933;51.336;12.612;2024-01-25T02:15:22;100344.09;;;9.47;53.45
60061;BME280;45933;51.336;12.612;2024-01-25T02:17:48;100354.53;;;9.51;53.06
60061;BME280;45933;51.336;12.612;2024-01-25T02:20:14;100340.66;;;9.51;53.10
60061;BME280;45933;51.336;12.612;2024-01-25T02:22:39;100345.84;;;9.48;53.13
60061;BME280;45933;51.336;12.612;2024-01-25T02:25:05;100331.97;;;9.50;52.78
60061;BME280;45933;51.336;12.612;2024-01-25T02:27:30;100341.50;;;9.48;52.59
60061;BME280;45933;51.336;12.612;2024-01-25T02:29:55;100351.91;;;9.47;52.97
60061;BME280;45933;51.336;12.612;2024-01-25T02:32:20;100339.75;;;9.42;52.93
60061;BME280;45933;51.336;12.612;2024-01-25T02:34:46;100334.53;;;9.38;53.19
60061;BME280;45933;51.336;12.612;2024-01-25T02:37:12;100346.69;;;9.40;53.05
60061;BME280;45933;51.336;12.612;2024-01-25T02:39:39;100345.78;;;9.37;53.10
60061;BME280;45933;51.336;12.612;2024-01-25T02:42:04;100343.19;;;9.32;53.12
60061;BME280;45933;51.336;12.612;2024-01-25T02:44:29;100348.41;;;9.34;52.86
60061;BME280;45933;51.336;12.612;2024-01-25T02:46:55;100341.44;;;9.30;52.86
60061;BME280;45933;51.336;12.612;2024-01-25T02:49:20;100341.44;;;9.30;52.84
60061;BME280;45933;51.336;12.612;2024-01-25T02:51:45;100348.34;;;9.22;52.89
60061;BME280;45933;51.336;12.612;2024-01-25T02:54:10;100350.94;;;9.20;52.95
60061;BME280;45933;51.336;12.612;2024-01-25T02:56:36;100357.84;;;9.15;52.81
60061;BME280;45933;51.336;12.612;2024-01-25T02:59:01;100342.28;;;9.18;52.89
60061;BME280;45933;51.336;12.612;2024-01-25T03:01:27;100355.25;;;9.15;52.89
60061;BME280;45933;51.336;12.612;2024-01-25T03:03:52;100351.78;;;9.14;52.79
60061;BME280;45933;51.336;12.612;2024-01-25T03:06:18;100347.44;;;9.10;53.00
60061;BME280;45933;51.336;12.612;2024-01-25T03:08:43;100343.97;;;9.08;52.99
60061;BME280;45933;51.336;12.612;2024-01-25T03:11:08;100352.63;;;9.09;52.85
60061;BME280;45933;51.336;12.612;2024-01-25T03:13:34;100354.34;;;9.02;52.91
60061;BME280;45933;51.336;12.612;2024-01-25T03:15:59;100364.75;;;9.02;53.18
60061;BME280;45933;51.336;12.612;2024-01-25T03:18:24;100356.91;;;9.01;52.94
60061;BME280;45933;51.336;12.612;2024-01-25T03:20:49;100350.84;;;8.99;53.47
60061;BME280;45933;51.336;12.612;2024-01-25T03:23:16;100356.00;;;8.93;53.49
60061;BME280;45933;51.336;12.612;2024-01-25T03:25:41;100365.53;;;8.92;53.62
60061;BME280;45933;51.336;12.612;2024-01-25T03:28:06;100365.53;;;8.94;53.70
60061;BME280;45933;51.336;12.612;2024-01-25T03:30:32;100369.84;;;8.88;53.81
60061;BME280;45933;51.336;12.612;2024-01-25T03:32:57;100366.41;;;8.94;53.58
60061;BME280;45933;51.336;12.612;2024-01-25T03:35:22;100365.50;;;8.90;53.53
60061;BME280;45933;51.336;12.612;2024-01-25T03:37:47;100373.31;;;8.90;53.71
60061;BME280;45933;51.336;12.612;2024-01-25T03:40:13;100371.63;;;8.93;53.89
60061;BME280;45933;51.336;12.612;2024-01-25T03:42:38;100364.69;;;8.93;54.05
60061;BME280;45933;51.336;12.612;2024-01-25T03:45:03;100371.59;;;8.91;53.96
60061;BME280;45933;51.336;12.612;2024-01-25T03:47:29;100375.94;;;8.94;54.47
60061;BME280;45933;51.336;12.612;2024-01-25T03:49:54;100382.88;;;8.95;54.09
60061;BME280;45933;51.336;12.612;2024-01-25T03:52:19;100392.41;;;8.96;54.28
60061;BME280;45933;51.336;12.612;2024-01-25T03:54:44;100400.22;;;8.94;54.47
60061;BME280;45933;51.336;12.612;2024-01-25T03:57:10;100385.47;;;8.93;54.48
60061;BME280;45933;51.336;12.612;2024-01-25T03:59:35;100395.91;;;8.98;54.45
60061;BME280;45933;51.336;12.612;2024-01-25T04:02:00;100404.53;;;8.94;54.35
60061;BME280;45933;51.336;12.612;2024-01-25T04:04:25;100406.28;;;8.95;54.40
60061;BME280;45933;51.336;12.612;2024-01-25T04:06:51;100411.47;;;8.96;54.65
60061;BME280;45933;51.336;12.612;2024-01-25T04:09:16;100414.06;;;8.96;54.54
60061;BME280;45933;51.336;12.612;2024-01-25T04:11:41;100426.19;;;8.91;54.56
60061;BME280;45933;51.336;12.612;2024-01-25T04:14:07;100430.53;;;8.94;55.04
60061;BME280;45933;51.336;12.612;2024-01-25T04:16:33;100447.88;;;8.95;54.41
60061;BME280;45933;51.336;12.612;2024-01-25T04:18:58;100441.78;;;8.91;54.83
60061;BME280;45933;51.336;12.612;2024-01-25T04:21:23;100450.47;;;8.92;54.91
60061;BME280;45933;51.336;12.612;2024-01-25T04:23:49;100458.28;;;8.95;55.19
60061;BME280;45933;51.336;12.612;2024-01-25T04:26:15;100459.16;;;8.94;54.89
60061;BME280;45933;51.336;12.612;2024-01-25T04:28:41;100458.28;;;8.95;55.07
60061;BME280;45933;51.336;12.612;2024-01-25T04:31:06;100460.88;;;8.93;55.55
60061;BME280;45933;51.336;12.612;2024-01-25T04:33:32;100461.75;;;8.95;54.92
60061;BME280;45933;51.336;12.612;2024-01-25T04:35:57;100464.34;;;8.94;54.79
60061;BME280;45933;51.336;12.612;2024-01-25T04:38:22;100467.81;;;8.94;54.74
60061;BME280;45933;51.336;12.612;2024-01-25T04:40:47;100470.41;;;8.93;54.91
60061;BME280;45933;51.336;12.612;2024-01-25T04:43:13;100470.41;;;8.94;54.75
60061;BME280;45933;51.336;12.612;2024-01-25T04:45:39;100488.59;;;8.93;55.04
60061;BME280;45933;51.336;12.612;2024-01-25T04:48:04;100501.63;;;8.96;54.52
60061;BME280;45933;51.336;12.612;2024-01-25T04:50:30;100494.69;;;8.93;54.72
60061;BME280;45933;51.336;12.612;2024-01-25T04:52:55;100494.69;;;8.95;54.96
60061;BME280;45933;51.336;12.612;2024-01-25T04:55:21;100503.38;;;8.98;54.62
60061;BME280;45933;51.336;12.612;2024-01-25T04:57:46;100505.06;;;8.95;54.88
60061;BME280;45933;51.336;12.612;2024-01-25T05:00:13;100512.91;;;8.98;54.32
60061;BME280;45933;51.336;12.612;2024-01-25T05:02:38;100517.25;;;8.97;54.56
60061;BME280;45933;51.336;12.612;2024-01-25T05:05:04;100519.84;;;8.97;54.38
60061;BME280;45933;51.336;12.612;2024-01-25T05:07:29;100525.06;;;8.99;54.58
60061;BME280;45933;51.336;12.612;2024-01-25T05:09:55;100527.66;;;8.99;54.50
60061;BME280;45933;51.336;12.612;2024-01-25T05:12:20;100522.44;;;8.97;54.15
60061;BME280;45933;51.336;12.612;2024-01-25T05:14:45;100516.34;;;8.92;53.82
60061;BME280;45933;51.336;12.612;2024-01-25T05:17:10;100524.16;;;8.92;54.13
60061;BME280;45933;51.336;12.612;2024-01-25T05:19:36;100522.41;;;8.96;54.11
60061;BME280;45933;51.336;12.612;2024-01-25T05:22:01;100521.59;;;8.97;53.42
60061;BME280;45933;51.336;12.612;2024-01-25T05:24:31;100510.28;;;8.92;53.39
60061;BME280;45933;51.336;12.612;2024-01-25T05:26:56;100524.19;;;9.00;53.37
60061;BME280;45933;51.336;12.612;2024-01-25T05:29:21;100523.28;;;8.96;53.21
60061;BME280;45933;51.336;12.612;2024-01-25T05:31:46;100535.41;;;8.96;52.98
60061;BME280;45933;51.336;12.612;2024-01-25T05:34:13;100543.25;;;8.99;53.14
60061;BME280;45933;51.336;12.612;2024-01-25T05:36:38;100542.38;;;9.00;52.82
60061;BME280;45933;51.336;12.612;2024-01-25T05:39:04;100541.53;;;8.99;52.76
60061;BME280;45933;51.336;12.612;2024-01-25T05:41:31;100542.38;;;9.00;52.88
60061;BME280;45933;51.336;12.612;2024-01-25T05:43:56;100542.38;;;9.00;52.87
60061;BME280;45933;51.336;12.612;2024-01-25T05:46:22;100542.38;;;9.00;53.03
60061;BME280;45933;51.336;12.612;2024-01-25T05:48:47;100554.53;;;8.99;52.91
60061;BME280;45933;51.336;12.612;2024-01-25T05:51:12;100546.72;;;9.01;52.60
60061;BME280;45933;51.336;12.612;2024-01-25T05:53:39;100558.91;;;9.02;52.42
60061;BME280;45933;51.336;12.612;2024-01-25T05:56:04;100560.63;;;9.03;52.59
60061;BME280;45933;51.336;12.612;2024-01-25T05:58:29;100558.91;;;9.03;53.02
60061;BME280;45933;51.336;12.612;2024-01-25T06:00:54;100570.16;;;9.04;53.04
60061;BME280;45933;51.336;12.612;2024-01-25T06:03:20;100577.09;;;9.05;52.84
60061;BME280;45933;51.336;12.612;2024-01-25T06:05:45;100578.81;;;9.01;52.42
60061;BME280;45933;51.336;12.612;2024-01-25T06:08:10;100567.56;;;9.02;52.69
60061;BME280;45933;51.336;12.612;2024-01-25T06:10:35;100574.50;;;9.03;52.58
60061;BME280;45933;51.336;12.612;2024-01-25T06:13:01;100578.81;;;9.01;52.56
60061;BME280;45933;51.336;12.612;2024-01-25T06:15:26;100589.25;;;9.03;52.46
60061;BME280;45933;51.336;12.612;2024-01-25T06:17:51;100590.97;;;9.02;52.49
60061;BME280;45933;51.336;12.612;2024-01-25T06:20:17;100603.09;;;9.02;52.40
60061;BME280;45933;51.336;12.612;2024-01-25T06:22:42;100602.19;;;8.98;51.94
60061;BME280;45933;51.336;12.612;2024-01-25T06:25:07;100615.19;;;9.00;51.80
60061;BME280;45933;51.336;12.612;2024-01-25T06:27:33;100602.19;;;9.00;51.99
60061;BME280;45933;51.336;12.612;2024-01-25T06:30:00;100605.66;;;9.00;51.89
60061;BME280;45933;51.336;12.612;2024-01-25T06:32:25;100622.13;;;9.01;51.43
60061;BME280;45933;51.336;12.612;2024-01-25T06:34:50;100628.19;;;9.00;51.95
60061;BME280;45933;51.336;12.612;2024-01-25T06:37:15;100637.75;;;9.01;51.44
60061;BME280;45933;51.336;12.612;2024-01-25T06:39:43;100637.75;;;9.01;51.87
60061;BME280;45933;51.336;12.612;2024-01-25T06:42:09;100642.13;;;9.03;51.39
60061;BME280;45933;51.336;12.612;2024-01-25T06:44:34;100643.81;;;9.01;51.55
60061;BME280;45933;51.336;12.612;2024-01-25T06:46:59;100648.19;;;9.02;51.47
60061;BME280;45933;51.336;12.612;2024-01-25T06:49:24;100653.38;;;9.04;51.46
60061;BME280;45933;51.336;12.612;2024-01-25T06:51:50;100658.53;;;8.99;51.90
60061;BME280;45933;51.336;12.612;2024-01-25T06:54:15;100663.72;;;8.98;51.37
60061;BME280;45933;51.336;12.612;2024-01-25T06:56:40;100664.63;;;9.01;51.93
60061;BME280;45933;51.336;12.612;2024-01-25T06:59:05;100661.19;;;9.02;52.18
60061;BME280;45933;51.336;12.612;2024-01-25T07:01:31;100675.00;;;9.01;52.07
60061;BME280;45933;51.336;12.612;2024-01-25T07:03:57;100675.91;;;9.02;52.02
60061;BME280;45933;51.336;12.612;2024-01-25T07:06:23;100675.00;;;9.01;52.09
60061;BME280;45933;51.336;12.612;2024-01-25T07:08:48;100662.00;;;9.00;52.33
60061;BME280;45933;51.336;12.612;2024-01-25T07:11:14;100683.72;;;9.02;52.63
60061;BME280;45933;51.336;12.612;2024-01-25T07:13:40;100688.94;;;9.05;52.34
60061;BME280;45933;51.336;12.612;2024-01-25T07:16:06;100679.38;;;9.02;52.70
60061;BME280;45933;51.336;12.612;2024-01-25T07:18:31;100692.34;;;8.98;53.19
60061;BME280;45933;51.336;12.612;2024-01-25T07:20:56;100681.06;;;9.00;53.05
60061;BME280;45933;51.336;12.612;2024-01-25T07:23:22;100681.06;;;9.00;53.29
60061;BME280;45933;51.336;12.612;2024-01-25T07:25:47;100688.00;;;9.01;53.00
60061;BME280;45933;51.336;12.612;2024-01-25T07:28:12;100685.41;;;9.00;53.29
60061;BME280;45933;51.336;12.612;2024-01-25T07:30:38;100691.53;;;9.02;53.31
60061;BME280;45933;51.336;12.612;2024-01-25T07:33:03;100700.13;;;8.98;53.49
60061;BME280;45933;51.336;12.612;2024-01-25T07:35:29;100694.06;;;8.99;53.79
60061;BME280;45933;51.336;12.612;2024-01-25T07:37:54;100695.75;;;8.94;53.75
60061;BME280;45933;51.336;12.612;2024-01-25T07:40:19;100701.81;;;8.94;53.93
60061;BME280;45933;51.336;12.612;2024-01-25T07:42:46;100703.56;;;8.95;53.81
60061;BME280;45933;51.336;12.612;2024-01-25T07:45:12;100707.84;;;8.90;53.54
60061;BME280;45933;51.336;12.612;2024-01-25T07:47:40;100696.63;;;8.94;53.57
60061;BME280;45933;51.336;12.612;2024-01-25T07:50:06;100694.88;;;8.95;53.25
60061;BME280;45933;51.336;12.612;2024-01-25T07:52:31;100688.81;;;8.94;53.29
60061;BME280;45933;51.336;12.612;2024-01-25T07:54:57;100686.22;;;8.94;53.32
60061;BME280;45933;51.336;12.612;2024-01-25T07:57:22;100688.81;;;8.93;53.42
60061;BME280;45933;51.336;12.612;2024-01-25T07:59:47;100688.81;;;8.96;53.36
60061;BME280;45933;51.336;12.612;2024-01-25T08:02:12;100688.81;;;8.96;53.08
60061;BME280;45933;51.336;12.612;2024-01-25T08:04:38;100695.78;;;8.97;52.90
60061;BME280;45933;51.336;12.612;2024-01-25T08:07:03;100706.19;;;8.98;52.94
60061;BME280;45933;51.336;12.612;2024-01-25T08:09:28;100707.94;;;9.01;53.21
60061;BME280;45933;51.336;12.612;2024-01-25T08:11:54;100712.28;;;8.97;53.31
60061;BME280;45933;51.336;12.612;2024-01-25T08:14:19;100715.75;;;9.01;52.94
60061;BME280;45933;51.336;12.612;2024-01-25T08:16:44;100708.81;;;9.01;53.13
60061;BME280;45933;51.336;12.612;2024-01-25T08:19:10;100724.47;;;9.04;53.13
60061;BME280;45933;51.336;12.612;2024-01-25T08:21:35;100717.53;;;9.05;53.10
60061;BME280;45933;51.336;12.612;2024-01-25T08:24:01;100725.34;;;9.06;52.77
60061;BME280;45933;51.336;12.612;2024-01-25T08:26:27;100738.34;;;9.06;52.96
60061;BME280;45933;51.336;12.612;2024-01-25T08:28:52;100741.88;;;9.11;52.85
60061;BME280;45933;51.336;12.612;2024-01-25T08:31:17;100736.66;;;9.08;52.54
60061;BME280;45933;51.336;12.612;2024-01-25T08:33:43;100746.25;;;9.12;52.31
60061;BME280;45933;51.336;12.612;2024-01-25T08:36:13;100742.72;;;9.10;52.88
60061;BME280;45933;51.336;12.612;2024-01-25T08:38:38;100743.59;;;9.11;52.82
60061;BME280;45933;51.336;12.612;2024-01-25T08:41:04;100748.75;;;9.06;53.22
60061;BME280;45933;51.336;12.612;2024-01-25T08:43:29;100755.75;;;9.10;53.24
60061;BME280;45933;51.336;12.612;2024-01-25T08:45:54;100760.94;;;9.12;53.03
60061;BME280;45933;51.336;12.612;2024-01-25T08:48:20;100763.56;;;9.12;53.19
60061;BME280;45933;51.336;12.612;2024-01-25T08:50:46;100760.94;;;9.10;53.56
60061;BME280;45933;51.336;12.612;2024-01-25T08:53:11;100758.38;;;9.13;53.66
60061;BME280;45933;51.336;12.612;2024-01-25T08:55:36;100756.72;;;9.19;53.24
60061;BME280;45933;51.336;12.612;2024-01-25T08:58:01;100757.59;;;9.21;53.62
60061;BME280;45933;51.336;12.612;2024-01-25T09:00:27;100756.78;;;9.28;53.58
60061;BME280;45933;51.336;12.612;2024-01-25T09:02:53;100752.50;;;9.31;53.66
60061;BME280;45933;51.336;12.612;2024-01-25T09:05:18;100754.34;;;9.41;53.37
60061;BME280;45933;51.336;12.612;2024-01-25T09:07:43;100765.72;;;9.51;53.71
60061;BME280;45933;51.336;12.612;2024-01-25T09:10:09;100757.13;;;9.61;53.48
60061;BME280;45933;51.336;12.612;2024-01-25T09:12:35;100755.50;;;9.73;53.03
60061;BME280;45933;51.336;12.612;2024-01-25T09:15:01;100757.31;;;9.86;53.36
60061;BME280;45933;51.336;12.612;2024-01-25T09:17:27;100759.22;;;10.07;53.37
60061;BME280;45933;51.336;12.612;2024-01-25T09:19:52;100756.78;;;10.24;52.69
60061;BME280;45933;51.336;12.612;2024-01-25T09:22:18;100760.34;;;10.39;51.82
60061;BME280;45933;51.336;12.612;2024-01-25T09:24:45;100762.16;;;10.54;51.54
60061;BME280;45933;51.336;12.612;2024-01-25T09:27:11;100763.06;;;10.59;51.15
60061;BME280;45933;51.336;12.612;2024-01-25T09:29:36;100777.88;;;10.66;50.94
60061;BME280;45933;51.336;12.612;2024-01-25T09:32:03;100779.59;;;10.64;50.73
60061;BME280;45933;51.336;12.612;2024-01-25T09:34:29;100780.47;;;10.65;50.78
60061;BME280;45933;51.336;12.612;2024-01-25T09:36:54;100807.38;;;10.58;50.59
60061;BME280;45933;51.336;12.612;2024-01-25T09:39:20;100788.19;;;10.48;50.23
60061;BME280;45933;51.336;12.612;2024-01-25T09:41:45;100789.94;;;10.47;50.31
60061;BME280;45933;51.336;12.612;2024-01-25T09:44:11;100790.72;;;10.36;50.26
60061;BME280;45933;51.336;12.612;2024-01-25T09:46:37;100792.47;;;10.34;50.54
60061;BME280;45933;51.336;12.612;2024-01-25T09:49:02;100801.94;;;10.26;50.32
60061;BME280;45933;51.336;12.612;2024-01-25T09:51:36;100801.94;;;10.27;50.38
60061;BME280;45933;51.336;12.612;2024-01-25T09:54:03;100797.53;;;10.20;50.77
60061;BME280;45933;51.336;12.612;2024-01-25T09:56:31;100807.09;;;10.19;51.17
60061;BME280;45933;51.336;12.612;2024-01-25T09:58:57;100814.91;;;10.18;51.32
60061;BME280;45933;51.336;12.612;2024-01-25T10:01:23;100810.56;;;10.21;51.62
60061;BME280;45933;51.336;12.612;2024-01-25T10:03:48;100819.25;;;10.20;51.60
60061;BME280;45933;51.336;12.612;2024-01-25T10:06:15;100816.72;;;10.27;51.96
60061;BME280;45933;51.336;12.612;2024-01-25T10:08:41;100815.00;;;10.29;51.68
60061;BME280;45933;51.336;12.612;2024-01-25T10:11:06;100821.97;;;10.31;51.49
60061;BME280;45933;51.336;12.612;2024-01-25T10:13:46;100827.22;;;10.37;51.66
60061;BME280;45933;51.336;12.612;2024-01-25T10:16:16;100808.94;;;10.33;50.75
60061;BME280;45933;51.336;12.612;2024-01-25T10:18:43;100815.88;;;10.32;50.46
60061;BME280;45933;51.336;12.612;2024-01-25T10:21:13;100815.91;;;10.34;49.92
60061;BME280;45933;51.336;12.612;2024-01-25T10:23:39;100815.91;;;10.34;50.02
60061;BME280;45933;51.336;12.612;2024-01-25T10:26:05;100818.53;;;10.34;50.05
60061;BME280;45933;51.336;12.612;2024-01-25T10:28:30;100812.41;;;10.32;50.13
60061;BME280;45933;51.336;12.612;2024-01-25T10:31:00;100807.19;;;10.33;50.26
60061;BME280;45933;51.336;12.612;2024-01-25T10:33:37;100818.56;;;10.40;50.25
60061;BME280;45933;51.336;12.612;2024-01-25T10:36:03;100814.19;;;10.37;50.00
60061;BME280;45933;51.336;12.612;2024-01-25T10:38:31;100807.28;;;10.39;50.08
60061;BME280;45933;51.336;12.612;2024-01-25T10:41:00;100809.91;;;10.44;49.97
60061;BME280;45933;51.336;12.612;2024-01-25T10:43:26;100815.13;;;10.45;50.21
60061;BME280;45933;51.336;12.612;2024-01-25T10:45:51;100816.97;;;10.60;50.95
60061;BME280;45933;51.336;12.612;2024-01-25T10:48:21;100821.38;;;10.70;51.04
60061;BME280;45933;51.336;12.612;2024-01-25T10:50:47;100818.81;;;10.86;50.63
60061;BME280;45933;51.336;12.612;2024-01-25T10:53:15;100816.28;;;11.01;50.28
60061;BME280;45933;51.336;12.612;2024-01-25T10:55:40;100817.22;;;11.21;50.29
60061;BME280;45933;51.336;12.612;2024-01-25T10:58:07;100839.06;;;11.43;50.19
60061;BME280;45933;51.336;12.612;2024-01-25T11:00:34;100822.56;;;11.52;48.29
60061;BME280;45933;51.336;12.612;2024-01-25T11:03:01;100820.84;;;11.75;48.83
60061;BME280;45933;51.336;12.612;2024-01-25T11:05:26;100809.59;;;11.87;48.49
60061;BME280;45933;51.336;12.612;2024-01-25T11:07:51;100805.25;;;11.97;47.70
60061;BME280;45933;51.336;12.612;2024-01-25T11:10:19;100811.31;;;12.07;46.74
60061;BME280;45933;51.336;12.612;2024-01-25T11:12:54;100802.59;;;12.17;47.70
60061;BME280;45933;51.336;12.612;2024-01-25T11:15:21;100785.19;;;12.20;47.82
60061;BME280;45933;51.336;12.612;2024-01-25T11:17:51;100779.06;;;12.23;47.26
60061;BME280;45933;51.336;12.612;2024-01-25T11:20:20;100774.72;;;12.25;47.00
60061;BME280;45933;51.336;12.612;2024-01-25T11:22:46;100786.91;;;12.21;47.00
60061;BME280;45933;51.336;12.612;2024-01-25T11:25:20;100779.94;;;12.26;47.55
60061;BME280;45933;51.336;12.612;2024-01-25T11:27:50;100784.31;;;12.15;47.01
60061;BME280;45933;51.336;12.612;2024-01-25T11:30:18;100774.72;;;12.20;47.03
60061;BME280;45933;51.336;12.612;2024-01-25T11:32:46;100779.94;;;12.17;46.93
60061;BME280;45933;51.336;12.612;2024-01-25T11:35:11;100774.72;;;12.25;46.95
60061;BME280;45933;51.336;12.612;2024-01-25T11:37:38;100778.22;;;12.25;46.92
60061;BME280;45933;51.336;12.612;2024-01-25T11:40:04;100778.22;;;12.25;46.63
60061;BME280;45933;51.336;12.612;2024-01-25T11:42:30;100772.13;;;12.19;46.99
60061;BME280;45933;51.336;12.612;2024-01-25T11:44:56;100786.06;;;12.12;46.86
60061;BME280;45933;51.336;12.612;2024-01-25T11:47:21;100781.72;;;12.04;46.80
60061;BME280;45933;51.336;12.612;2024-01-25T11:49:46;100792.16;;;11.98;47.06
60061;BME280;45933;51.336;12.612;2024-01-25T11:52:12;100799.13;;;11.93;46.87
60061;BME280;45933;51.336;12.612;2024-01-25T11:54:38;100800.00;;;11.85;47.28
60061;BME280;45933;51.336;12.612;2024-01-25T11:57:04;100790.41;;;11.76;47.10
60061;BME280;45933;51.336;12.612;2024-01-25T11:59:30;100797.34;;;11.66;47.52
60061;BME280;45933;51.336;12.612;2024-01-25T12:01:55;100803.44;;;11.61;47.51
60061;BME280;45933;51.336;12.612;2024-01-25T12:04:21;100801.66;;;11.53;47.78
60061;BME280;45933;51.336;12.612;2024-01-25T12:06:47;100797.31;;;11.46;47.98
60061;BME280;45933;51.336;12.612;2024-01-25T12:09:15;100791.19;;;11.38;47.66
60061;BME280;45933;51.336;12.612;2024-01-25T12:11:41;100806.84;;;11.34;48.19
60061;BME280;45933;51.336;12.612;2024-01-25T12:14:07;100803.34;;;11.30;48.55
60061;BME280;45933;51.336;12.612;2024-01-25T12:16:33;100796.38;;;11.26;48.17
60061;BME280;45933;51.336;12.612;2024-01-25T12:18:59;100805.06;;;11.26;48.34
60061;BME280;45933;51.336;12.612;2024-01-25T12:21:24;100809.38;;;11.17;48.49
60061;BME280;45933;51.336;12.612;2024-01-25T12:23:50;100818.09;;;11.13;48.33
60061;BME280;45933;51.336;12.612;2024-01-25T12:26:16;100803.31;;;11.13;48.57
60061;BME280;45933;51.336;12.612;2024-01-25T12:28:42;100810.22;;;11.05;48.79
60061;BME280;45933;51.336;12.612;2024-01-25T12:31:08;100805.88;;;11.03;48.98
60061;BME280;45933;51.336;12.612;2024-01-25T12:33:34;100806.69;;;10.95;48.83
60061;BME280;45933;51.336;12.612;2024-01-25T12:36:01;100800.63;;;10.98;49.17
60061;BME280;45933;51.336;12.612;2024-01-25T12:38:26;100803.22;;;10.95;49.43
60061;BME280;45933;51.336;12.612;2024-01-25T12:40:52;100798.88;;;10.92;49.50